Time;durP1;ratioP1;P1;durP2;ratioP2;P2;SDS_P1;SDS_P2;PMS_P1;PMS_P2;Temp;Humidity;BMP_temperature;BMP_pressure;BME280_temperature;BME280_humidity;BME280_pressure;Samples;Min_cycle;Max_cycle;Signal;HPM_P1;HPM_P2
2024/04/01 00:00:26;;;;;;;7.13;4.97;;;;;;;;;;5021381;28;20037;-82
2024/04/01 00:02:51;;;;;;;1.85;1.70;;;;;;;;;;5021757;28;20675;-79
2024/04/01 00:05:18;;;;;;;3.13;2.30;;;;;;;;;;5025161;28;20032;-78
2024/04/01 00:08:00;;;;;;;5.35;4.43;;;;;;;;;;4968830;28;20098;-80
2024/04/01 00:10:30;;;;;;;2.35;2.15;;;;;;;;;;5003512;28;20037;-79
2024/04/01 00:13:02;;;;;;;4.97;3.25;;;;;;;;;;5001777;28;20057;-78
2024/04/01 00:15:55;;;;;;;9.90;3.03;;;;;;;;;;4974852;28;20513;-78
2024/04/01 00:18:29;;;;;;;12.60;5.18;;;;;;;;;;4996898;28;20052;-77
2024/04/01 00:21:14;;;;;;;4.25;3.58;;;;;;;;;;4970568;28;20042;-78
2024/04/01 00:23:43;;;;;;;2.55;2.35;;;;;;;;;;5009829;28;20076;-78
2024/04/01 00:26:39;;;;;;;4.85;3.10;;;;;;;;;;4984502;28;20555;-78
2024/04/01 00:29:10;;;;;;;2.42;2.05;;;;;;;;;;5002675;28;20046;-78
2024/04/01 00:31:43;;;;;;;6.53;2.30;;;;;;;;;;4965218;28;20054;-74
2024/04/01 00:34:11;;;;;;;4.35;3.65;;;;;;;;;;5005078;28;20033;-79
2024/04/01 00:36:42;;;;;;;5.20;3.55;;;;;;;;;;4995566;28;20457;-77
2024/04/01 00:39:08;;;;;;;5.50;5.05;;;;;;;;;;4979035;28;20086;-76
2024/04/01 00:41:50;;;;;;;4.45;3.47;;;;;;;;;;5002346;28;20046;-76
2024/04/01 00:44:21;;;;;;;3.85;3.28;;;;;;;;;;5001977;28;20433;-78
2024/04/01 00:46:51;;;;;;;8.90;4.45;;;;;;;;;;5002059;28;20470;-77
2024/04/01 00:49:20;;;;;;;3.72;3.38;;;;;;;;;;4999953;28;20046;-78
2024/04/01 00:51:46;;;;;;;4.97;4.57;;;;;;;;;;4987465;28;20045;-76
2024/04/01 00:54:12;;;;;;;8.48;4.40;;;;;;;;;;5002069;28;20525;-75
2024/04/01 00:56:39;;;;;;;4.63;3.17;;;;;;;;;;5005209;28;20018;-76
2024/04/01 00:59:05;;;;;;;6.28;2.35;;;;;;;;;;4987711;28;20040;-76
2024/04/01 01:01:32;;;;;;;7.13;5.45;;;;;;;;;;4987759;28;20038;-77
2024/04/01 01:04:07;;;;;;;3.10;2.35;;;;;;;;;;4989168;28;20049;-78
2024/04/01 01:06:34;;;;;;;3.60;2.83;;;;;;;;;;4995547;28;20066;-78
2024/04/01 01:08:59;;;;;;;4.22;2.42;;;;;;;;;;5031782;28;20055;-80
2024/04/01 01:11:25;;;;;;;14.15;1.92;;;;;;;;;;5023428;28;20720;-79
2024/04/01 01:13:50;;;;;;;3.00;2.17;;;;;;;;;;5026483;28;20463;-79
2024/04/01 01:16:15;;;;;;;5.18;4.68;;;;;;;;;;5009921;28;20519;-80
2024/04/01 01:18:42;;;;;;;2.90;2.67;;;;;;;;;;5014916;28;20049;-79
2024/04/01 01:21:08;;;;;;;6.53;5.93;;;;;;;;;;5008618;28;20057;-79
2024/04/01 01:23:34;;;;;;;7.38;2.88;;;;;;;;;;5027250;28;20021;-80
2024/04/01 01:26:00;;;;;;;3.97;2.92;;;;;;;;;;5023290;28;20041;-79
2024/04/01 01:28:26;;;;;;;2.83;2.55;;;;;;;;;;5027398;28;20041;-80
2024/04/01 01:30:51;;;;;;;1.70;1.30;;;;;;;;;;5026221;28;20044;-79
2024/04/01 01:33:17;;;;;;;5.25;4.00;;;;;;;;;;5023431;28;20037;-79
2024/04/01 01:35:44;;;;;;;1.27;1.05;;;;;;;;;;5027018;28;20079;-79
2024/04/01 01:38:10;;;;;;;4.32;3.38;;;;;;;;;;5039432;28;20129;-79
2024/04/01 01:40:35;;;;;;;2.35;2.13;;;;;;;;;;5019300;28;20029;-78
2024/04/01 01:43:00;;;;;;;6.60;5.97;;;;;;;;;;5025625;28;20747;-79
2024/04/01 01:45:26;;;;;;;6.22;1.80;;;;;;;;;;5020942;28;20092;-81
2024/04/01 01:47:51;;;;;;;4.65;4.20;;;;;;;;;;5024962;28;20807;-80
2024/04/01 01:50:17;;;;;;;3.97;3.65;;;;;;;;;;5027112;28;20072;-83
2024/04/01 01:52:42;;;;;;;2.67;2.45;;;;;;;;;;5024687;28;20041;-79
2024/04/01 01:55:07;;;;;;;11.70;4.47;;;;;;;;;;5023156;28;20075;-79
2024/04/01 01:57:33;;;;;;;4.18;3.72;;;;;;;;;;5015227;28;20511;-82
2024/04/01 01:59:59;;;;;;;3.42;3.13;;;;;;;;;;5023642;28;20469;-81
2024/04/01 02:02:24;;;;;;;30.05;3.97;;;;;;;;;;5024792;28;20033;-81
2024/04/01 02:04:50;;;;;;;4.32;3.50;;;;;;;;;;5021061;28;20473;-82
2024/04/01 02:07:15;;;;;;;3.90;3.38;;;;;;;;;;5007644;28;20120;-82
2024/04/01 02:09:42;;;;;;;3.00;2.25;;;;;;;;;;5003531;28;20061;-81
2024/04/01 02:12:07;;;;;;;18.10;3.78;;;;;;;;;;5009494;28;20072;-80
2024/04/01 02:14:33;;;;;;;4.22;3.90;;;;;;;;;;5001986;28;20032;-78
2024/04/01 02:17:01;;;;;;;3.65;2.58;;;;;;;;;;5003152;28;20045;-78
2024/04/01 02:19:27;;;;;;;4.13;3.13;;;;;;;;;;4999560;28;20050;-78
2024/04/01 02:21:53;;;;;;;4.82;3.85;;;;;;;;;;4986365;28;20050;-78
2024/04/01 02:24:18;;;;;;;17.30;6.63;;;;;;;;;;5003366;28;20486;-77
2024/04/01 02:26:44;;;;;;;6.43;4.05;;;;;;;;;;5021144;28;20033;-78
2024/04/01 02:29:10;;;;;;;4.25;3.85;;;;;;;;;;5017296;28;20065;-78
2024/04/01 02:31:35;;;;;;;7.15;3.55;;;;;;;;;;4986530;28;20171;-79
2024/04/01 02:34:01;;;;;;;4.45;4.07;;;;;;;;;;4999731;28;20038;-77
2024/04/01 02:36:27;;;;;;;9.38;3.53;;;;;;;;;;4992580;28;20042;-77
2024/04/01 02:38:53;;;;;;;2.15;1.95;;;;;;;;;;5004532;28;20127;-78
2024/04/01 02:41:19;;;;;;;4.25;3.88;;;;;;;;;;4996000;28;20103;-79
2024/04/01 02:43:45;;;;;;;2.28;2.08;;;;;;;;;;4987398;28;20121;-79
2024/04/01 02:46:11;;;;;;;3.60;1.88;;;;;;;;;;4992887;28;20057;-77
2024/04/01 02:48:36;;;;;;;3.25;2.35;;;;;;;;;;4988927;28;20058;-78
2024/04/01 02:51:02;;;;;;;3.92;3.33;;;;;;;;;;4987091;28;20046;-78
2024/04/01 02:53:28;;;;;;;3.72;3.08;;;;;;;;;;5001729;28;20046;-79
2024/04/01 02:55:55;;;;;;;4.63;3.50;;;;;;;;;;4979969;28;20057;-79
2024/04/01 02:58:22;;;;;;;5.75;3.17;;;;;;;;;;5002482;28;20103;-77
2024/04/01 03:00:47;;;;;;;4.40;3.97;;;;;;;;;;5002541;28;20045;-78
2024/04/01 03:03:16;;;;;;;6.97;3.95;;;;;;;;;;4999121;28;20061;-79
2024/04/01 03:05:41;;;;;;;4.90;2.92;;;;;;;;;;5006865;28;20442;-82
2024/04/01 03:08:07;;;;;;;3.88;2.83;;;;;;;;;;5026290;28;20065;-78
2024/04/01 03:10:36;;;;;;;3.75;2.95;;;;;;;;;;5020233;28;20439;-79
2024/04/01 03:13:05;;;;;;;4.13;3.45;;;;;;;;;;5016897;28;20099;-78
2024/04/01 03:15:30;;;;;;;5.18;3.10;;;;;;;;;;5019621;28;20056;-79
2024/04/01 03:17:56;;;;;;;5.75;5.25;;;;;;;;;;5023346;28;20393;-78
2024/04/01 03:20:22;;;;;;;3.60;3.30;;;;;;;;;;5027134;28;20116;-79
2024/04/01 03:22:48;;;;;;;3.83;3.45;;;;;;;;;;5029132;28;20220;-78
2024/04/01 03:25:13;;;;;;;3.08;2.55;;;;;;;;;;5002470;28;20052;-80
2024/04/01 03:27:39;;;;;;;3.45;3.15;;;;;;;;;;5000734;28;20033;-80
2024/04/01 03:30:05;;;;;;;3.67;3.40;;;;;;;;;;5023651;28;20033;-81
2024/04/01 03:32:30;;;;;;;2.47;2.28;;;;;;;;;;5008896;28;20397;-80
2024/04/01 03:34:55;;;;;;;6.15;4.07;;;;;;;;;;5019198;28;20048;-81
2024/04/01 03:37:21;;;;;;;3.58;2.42;;;;;;;;;;5022201;28;20064;-81
2024/04/01 03:39:47;;;;;;;6.18;5.43;;;;;;;;;;5002712;28;20080;-80
2024/04/01 03:42:13;;;;;;;3.50;2.38;;;;;;;;;;5017472;28;20037;-81
2024/04/01 03:44:38;;;;;;;2.58;2.38;;;;;;;;;;5008292;28;20033;-78
2024/04/01 03:47:04;;;;;;;8.52;5.93;;;;;;;;;;5019839;28;20096;-78
2024/04/01 03:49:30;;;;;;;2.60;1.98;;;;;;;;;;5020833;28;20136;-80
2024/04/01 03:52:09;;;;;;;4.68;4.28;;;;;;;;;;5022019;28;20056;-78
2024/04/01 03:54:35;;;;;;;3.50;3.20;;;;;;;;;;5019333;28;20046;-79
2024/04/01 03:57:01;;;;;;;3.22;2.92;;;;;;;;;;4999914;28;20134;-79
2024/04/01 03:59:26;;;;;;;4.05;3.55;;;;;;;;;;5022091;28;20026;-79
2024/04/01 04:01:52;;;;;;;4.00;3.63;;;;;;;;;;5022319;28;20045;-80
2024/04/01 04:04:20;;;;;;;4.72;4.18;;;;;;;;;;5012560;28;20051;-79
2024/04/01 04:06:52;;;;;;;4.40;4.00;;;;;;;;;;5005651;28;20050;-79
2024/04/01 04:09:26;;;;;;;3.65;3.35;;;;;;;;;;4992499;28;20056;-79
2024/04/01 04:11:54;;;;;;;3.08;2.65;;;;;;;;;;4970427;28;20379;-79
2024/04/01 04:14:32;;;;;;;5.82;4.38;;;;;;;;;;5010641;28;20046;-80
2024/04/01 04:17:07;;;;;;;4.97;4.07;;;;;;;;;;4963064;28;20038;-79
2024/04/01 04:19:42;;;;;;;3.53;3.03;;;;;;;;;;4983042;28;20056;-78
2024/04/01 04:22:10;;;;;;;1.65;1.17;;;;;;;;;;4967778;28;20050;-81
2024/04/01 04:24:36;;;;;;;4.63;3.67;;;;;;;;;;4982762;28;20049;-81
2024/04/01 04:27:02;;;;;;;8.95;4.82;;;;;;;;;;4991069;28;20054;-82
2024/04/01 04:29:28;;;;;;;2.17;1.85;;;;;;;;;;4986060;28;20041;-82
2024/04/01 04:31:57;;;;;;;1.80;1.23;;;;;;;;;;4985976;28;20141;-80
2024/04/01 04:34:23;;;;;;;4.00;3.53;;;;;;;;;;5001054;28;20053;-81
2024/04/01 04:36:48;;;;;;;3.33;3.00;;;;;;;;;;5004540;28;20042;-82
2024/04/01 04:39:24;;;;;;;8.38;3.47;;;;;;;;;;5001075;28;20050;-81
2024/04/01 04:41:50;;;;;;;2.45;2.25;;;;;;;;;;5003954;28;20041;-83
2024/04/01 04:44:16;;;;;;;3.08;2.88;;;;;;;;;;5004650;28;20688;-83
2024/04/01 04:46:41;;;;;;;4.80;4.28;;;;;;;;;;4983583;28;20053;-82
2024/04/01 04:49:06;;;;;;;4.32;2.80;;;;;;;;;;5005375;28;20075;-81
2024/04/01 04:51:34;;;;;;;3.20;2.92;;;;;;;;;;5003491;28;20045;-81
2024/04/01 04:54:00;;;;;;;10.23;3.90;;;;;;;;;;4993929;28;20049;-79
2024/04/01 04:56:25;;;;;;;4.88;3.97;;;;;;;;;;4991623;28;20631;-80
2024/04/01 04:58:53;;;;;;;13.88;3.08;;;;;;;;;;5008926;28;20057;-79
2024/04/01 05:01:20;;;;;;;11.27;5.15;;;;;;;;;;5005356;28;20194;-80
2024/04/01 05:03:46;;;;;;;4.50;4.13;;;;;;;;;;5004101;28;20049;-79
2024/04/01 05:06:14;;;;;;;6.40;3.30;;;;;;;;;;4993310;28;20084;-78
2024/04/01 05:08:58;;;;;;;4.10;3.67;;;;;;;;;;5016381;28;20087;-77
2024/04/01 05:11:24;;;;;;;8.45;4.68;;;;;;;;;;5005412;28;20405;-76
2024/04/01 05:14:09;;;;;;;3.67;2.58;;;;;;;;;;5019411;28;20046;-76
2024/04/01 05:16:38;;;;;;;5.65;3.90;;;;;;;;;;5015076;28;20108;-77
2024/04/01 05:19:16;;;;;;;5.05;3.88;;;;;;;;;;5004253;28;20042;-76
2024/04/01 05:21:49;;;;;;;13.20;4.53;;;;;;;;;;5015014;28;20049;-76
2024/04/01 05:24:15;;;;;;;5.85;3.38;;;;;;;;;;5018871;28;20049;-80
2024/04/01 05:26:45;;;;;;;3.20;2.90;;;;;;;;;;4992056;28;20036;-79
2024/04/01 05:29:19;;;;;;;4.05;3.20;;;;;;;;;;5033686;28;20053;-78
2024/04/01 05:31:46;;;;;;;4.90;3.67;;;;;;;;;;5018646;28;20080;-80
2024/04/01 05:34:37;;;;;;;2.85;2.55;;;;;;;;;;5019513;28;20084;-78
2024/04/01 05:37:12;;;;;;;3.47;3.17;;;;;;;;;;5017247;28;20396;-81
2024/04/01 05:39:55;;;;;;;4.18;3.78;;;;;;;;;;5008771;28;20095;-79
2024/04/01 05:42:34;;;;;;;2.88;2.10;;;;;;;;;;5019424;28;20844;-76
2024/04/01 05:45:00;;;;;;;7.75;2.20;;;;;;;;;;5028811;28;20026;-79
2024/04/01 05:47:25;;;;;;;1.98;1.77;;;;;;;;;;5011224;28;20037;-82
2024/04/01 05:49:50;;;;;;;1.52;1.42;;;;;;;;;;5007162;28;20152;-82
2024/04/01 05:52:16;;;;;;;2.10;1.88;;;;;;;;;;5016450;28;20046;-80
2024/04/01 05:54:41;;;;;;;2.22;2.03;;;;;;;;;;4999119;28;20073;-80
2024/04/01 05:57:08;;;;;;;5.85;5.32;;;;;;;;;;4994252;28;20117;-81
2024/04/01 05:59:34;;;;;;;2.55;2.33;;;;;;;;;;5008196;28;20026;-81
2024/04/01 06:01:59;;;;;;;4.72;3.42;;;;;;;;;;5000762;28;20042;-81
2024/04/01 06:04:25;;;;;;;4.85;3.80;;;;;;;;;;5025332;28;20041;-80
2024/04/01 06:06:51;;;;;;;6.65;5.05;;;;;;;;;;5015017;28;20049;-80
2024/04/01 06:09:17;;;;;;;3.60;3.00;;;;;;;;;;5005367;28;20049;-81
2024/04/01 06:11:42;;;;;;;1.38;1.27;;;;;;;;;;5006696;28;20124;-80
2024/04/01 06:14:08;;;;;;;6.25;3.83;;;;;;;;;;5006506;28;20026;-80
2024/04/01 06:16:34;;;;;;;2.40;1.60;;;;;;;;;;5005250;28;20046;-80
2024/04/01 06:18:59;;;;;;;5.70;3.58;;;;;;;;;;5006089;28;20193;-80
2024/04/01 06:21:26;;;;;;;4.65;3.38;;;;;;;;;;5005302;28;20034;-79
2024/04/01 06:23:51;;;;;;;4.05;3.38;;;;;;;;;;5007100;28;20013;-80
2024/04/01 06:26:17;;;;;;;2.58;2.38;;;;;;;;;;5006236;28;20047;-80
2024/04/01 06:28:44;;;;;;;1.25;1.17;;;;;;;;;;4995959;28;20053;-80
2024/04/01 06:31:09;;;;;;;5.88;3.60;;;;;;;;;;5006169;28;20049;-83
2024/04/01 06:33:35;;;;;;;2.70;2.28;;;;;;;;;;5005880;28;20654;-80
2024/04/01 06:36:01;;;;;;;4.15;3.22;;;;;;;;;;5004910;28;20418;-80
2024/04/01 06:38:26;;;;;;;4.25;1.70;;;;;;;;;;4988058;28;20026;-80
2024/04/01 06:40:51;;;;;;;1.45;1.35;;;;;;;;;;5004213;28;20053;-80
2024/04/01 06:43:17;;;;;;;1.27;1.17;;;;;;;;;;4988609;28;20068;-79
2024/04/01 06:45:51;;;;;;;0.80;0.80;;;;;;;;;;4986398;28;20053;-80
2024/04/01 06:48:16;;;;;;;3.33;1.70;;;;;;;;;;5006511;28;20421;-81
2024/04/01 06:50:42;;;;;;;8.18;3.63;;;;;;;;;;4988978;28;20034;-80
2024/04/01 06:53:07;;;;;;;1.67;1.58;;;;;;;;;;5007493;28;20033;-80
2024/04/01 06:55:33;;;;;;;3.40;3.10;;;;;;;;;;5004750;28;20145;-80
2024/04/01 06:57:58;;;;;;;6.40;3.53;;;;;;;;;;5008762;28;20025;-80
2024/04/01 07:00:23;;;;;;;1.50;1.40;;;;;;;;;;5005528;28;20042;-81
2024/04/01 07:02:49;;;;;;;2.97;2.50;;;;;;;;;;4985013;28;20040;-80
2024/04/01 07:05:14;;;;;;;3.63;3.30;;;;;;;;;;5006184;28;20026;-81
2024/04/01 07:07:39;;;;;;;5.82;3.38;;;;;;;;;;5000726;28;20049;-79
2024/04/01 07:10:07;;;;;;;1.10;1.00;;;;;;;;;;5004601;28;20399;-81
2024/04/01 07:12:32;;;;;;;34.15;3.20;;;;;;;;;;4999323;28;20039;-81
2024/04/01 07:14:58;;;;;;;2.80;2.03;;;;;;;;;;4985637;28;20486;-80
2024/04/01 07:17:23;;;;;;;2.75;2.47;;;;;;;;;;4977858;28;20153;-80
2024/04/01 07:19:48;;;;;;;1.90;1.65;;;;;;;;;;4985391;28;20040;-81
2024/04/01 07:22:14;;;;;;;1.65;1.55;;;;;;;;;;4986933;28;20045;-80
2024/04/01 07:24:43;;;;;;;2.95;2.00;;;;;;;;;;4985406;28;20054;-81
2024/04/01 07:27:08;;;;;;;1.90;1.73;;;;;;;;;;4981568;28;20553;-80
2024/04/01 07:29:34;;;;;;;3.53;1.98;;;;;;;;;;4987458;28;20022;-80
2024/04/01 07:31:59;;;;;;;4.43;1.80;;;;;;;;;;4986453;28;20072;-80
2024/04/01 07:34:25;;;;;;;2.95;2.67;;;;;;;;;;4994487;28;20034;-80
2024/04/01 07:36:50;;;;;;;3.20;2.28;;;;;;;;;;4982892;28;20088;-82
2024/04/01 07:39:16;;;;;;;5.97;2.70;;;;;;;;;;4988420;28;20073;-81
2024/04/01 07:41:42;;;;;;;2.65;2.45;;;;;;;;;;5003514;28;20030;-81
2024/04/01 07:44:07;;;;;;;1.35;1.20;;;;;;;;;;5005272;28;20100;-80
2024/04/01 07:46:32;;;;;;;7.90;3.65;;;;;;;;;;5006112;28;20132;-79
2024/04/01 07:48:59;;;;;;;2.70;2.45;;;;;;;;;;4995367;28;20352;-79
2024/04/01 07:51:25;;;;;;;2.17;2.00;;;;;;;;;;5004308;28;20085;-80
2024/04/01 07:53:50;;;;;;;1.55;1.45;;;;;;;;;;5004319;28;20462;-81
2024/04/01 07:56:15;;;;;;;3.28;2.47;;;;;;;;;;5004664;28;20128;-80
2024/04/01 07:58:41;;;;;;;2.55;2.35;;;;;;;;;;5002478;28;20107;-81
2024/04/01 08:01:08;;;;;;;1.85;1.75;;;;;;;;;;5003186;28;20544;-82
2024/04/01 08:03:33;;;;;;;2.90;2.13;;;;;;;;;;5003577;28;20092;-78
2024/04/01 08:05:58;;;;;;;2.53;2.33;;;;;;;;;;5005551;28;20038;-80
2024/04/01 08:08:24;;;;;;;6.88;3.60;;;;;;;;;;5007182;28;20112;-79
2024/04/01 08:10:49;;;;;;;1.83;1.73;;;;;;;;;;5023238;28;20468;-81
2024/04/01 08:13:15;;;;;;;4.25;3.95;;;;;;;;;;5023829;28;20041;-81
2024/04/01 08:15:40;;;;;;;2.50;2.30;;;;;;;;;;5024726;28;20044;-79
2024/04/01 08:18:05;;;;;;;0.77;0.77;;;;;;;;;;5025014;28;20119;-82
2024/04/01 08:20:31;;;;;;;3.38;1.65;;;;;;;;;;5023255;28;20029;-80
2024/04/01 08:22:56;;;;;;;1.73;1.63;;;;;;;;;;5021777;28;20041;-81
2024/04/01 08:25:22;;;;;;;7.88;1.67;;;;;;;;;;5005890;28;20041;-81
2024/04/01 08:27:49;;;;;;;2.25;1.45;;;;;;;;;;5023959;28;20037;-80
2024/04/01 08:30:14;;;;;;;1.48;1.38;;;;;;;;;;5007060;28;20814;-80
2024/04/01 08:32:40;;;;;;;0.90;0.90;;;;;;;;;;5005149;28;20029;-80
2024/04/01 08:35:05;;;;;;;5.28;2.88;;;;;;;;;;5004726;28;20518;-81
2024/04/01 08:37:30;;;;;;;3.20;2.35;;;;;;;;;;5007063;28;20044;-79
2024/04/01 08:39:56;;;;;;;0.43;0.43;;;;;;;;;;5022679;28;20036;-80
2024/04/01 08:42:22;;;;;;;3.17;2.85;;;;;;;;;;5005046;28;20041;-81
2024/04/01 08:44:50;;;;;;;2.72;2.50;;;;;;;;;;4997919;28;20022;-81
2024/04/01 08:47:24;;;;;;;1.02;0.98;;;;;;;;;;5038675;28;20152;-81
2024/04/01 08:49:59;;;;;;;1.15;1.05;;;;;;;;;;5007022;28;20619;-81
2024/04/01 08:52:25;;;;;;;2.63;1.30;;;;;;;;;;5019134;28;20038;-79
2024/04/01 08:54:50;;;;;;;5.32;3.45;;;;;;;;;;5004368;28;20047;-79
2024/04/01 08:57:16;;;;;;;1.88;1.45;;;;;;;;;;4955549;28;20102;-80
2024/04/01 08:59:42;;;;;;;1.92;1.10;;;;;;;;;;5025866;28;20028;-79
2024/04/01 09:02:08;;;;;;;3.50;2.88;;;;;;;;;;5022911;28;20037;-80
2024/04/01 09:04:33;;;;;;;5.10;2.83;;;;;;;;;;5021795;28;20737;-81
2024/04/01 09:06:58;;;;;;;1.48;1.38;;;;;;;;;;4997292;28;20521;-82
2024/04/01 09:09:24;;;;;;;1.55;1.45;;;;;;;;;;5021773;28;20069;-80
2024/04/01 09:11:50;;;;;;;3.13;2.35;;;;;;;;;;4989808;28;20152;-79
2024/04/01 09:14:28;;;;;;;2.90;1.85;;;;;;;;;;5029340;28;20108;-81
2024/04/01 09:17:02;;;;;;;1.58;0.93;;;;;;;;;;5017167;28;20060;-79
2024/04/01 09:19:32;;;;;;;2.45;2.25;;;;;;;;;;5025303;28;20048;-80
2024/04/01 09:22:07;;;;;;;0.90;0.90;;;;;;;;;;5027756;28;20067;-79
2024/04/01 09:24:57;;;;;;;0.75;0.75;;;;;;;;;;5022496;28;20038;-80
2024/04/01 09:27:33;;;;;;;0.88;0.47;;;;;;;;;;5005763;28;20622;-78
2024/04/01 09:30:00;;;;;;;2.22;1.80;;;;;;;;;;5027292;28;20035;-78
2024/04/01 09:32:31;;;;;;;2.25;2.05;;;;;;;;;;5028909;28;20029;-79
2024/04/01 09:35:05;;;;;;;1.77;1.23;;;;;;;;;;5028469;28;20065;-80
2024/04/01 09:37:44;;;;;;;2.95;2.63;;;;;;;;;;4996008;28;20132;-78
2024/04/01 09:40:30;;;;;;;1.52;1.42;;;;;;;;;;5029422;28;20064;-81
2024/04/01 09:43:03;;;;;;;0.73;0.73;;;;;;;;;;5028004;28;20559;-77
2024/04/01 09:45:37;;;;;;;3.83;3.28;;;;;;;;;;5021923;28;20406;-79
2024/04/01 09:48:15;;;;;;;6.07;4.28;;;;;;;;;;5034142;28;20816;-80
2024/04/01 09:50:47;;;;;;;2.60;1.95;;;;;;;;;;5026151;28;20026;-79
2024/04/01 09:53:23;;;;;;;2.13;1.85;;;;;;;;;;5015850;28;20049;-80
2024/04/01 09:56:13;;;;;;;2.25;1.83;;;;;;;;;;5024469;28;20049;-78
2024/04/01 09:59:03;;;;;;;6.70;2.47;;;;;;;;;;5027721;28;20056;-78
2024/04/01 10:01:57;;;;;;;3.70;2.35;;;;;;;;;;4998839;28;20441;-79
2024/04/01 10:04:27;;;;;;;;;;;;;;;;;;5037714;28;20029;-78
2024/04/01 10:07:26;;;;;;;2.75;2.03;;;;;;;;;;5013071;28;19941;-79
2024/04/01 10:10:17;;;;;;;2.50;2.22;;;;;;;;;;5007506;28;20049;-80
2024/04/01 10:13:08;;;;;;;5.25;2.13;;;;;;;;;;5000876;28;20056;-78
2024/04/01 10:15:55;;;;;;;2.13;1.95;;;;;;;;;;4988962;28;20666;-79
2024/04/01 10:18:48;;;;;;;0.50;0.50;;;;;;;;;;4954950;28;20043;-80
2024/04/01 10:21:41;;;;;;;3.08;2.78;;;;;;;;;;4933554;28;20054;-81
2024/04/01 10:24:52;;;;;;;2.80;1.95;;;;;;;;;;4936861;28;20050;-80
2024/04/01 10:27:36;;;;;;;1.77;1.67;;;;;;;;;;4932037;28;20111;-78
2024/04/01 10:30:50;;;;;;;1.05;0.73;;;;;;;;;;4938953;28;20038;-79
2024/04/01 10:33:33;;;;;;;2.45;1.77;;;;;;;;;;4941342;28;20126;-79
2024/04/01 10:36:29;;;;;;;1.40;1.30;;;;;;;;;;4939392;28;20413;-80
2024/04/01 10:39:19;;;;;;;0.20;0.20;;;;;;;;;;4940623;28;20035;-78
2024/04/01 10:42:06;;;;;;;1.60;1.40;;;;;;;;;;4948649;28;20060;-79
2024/04/01 10:44:49;;;;;;;4.32;1.27;;;;;;;;;;4954363;28;20433;-79
2024/04/01 10:47:50;;;;;;;0.82;0.82;;;;;;;;;;4947057;28;20077;-80
2024/04/01 10:50:40;;;;;;;2.38;1.88;;;;;;;;;;4987574;28;20133;-79
2024/04/01 10:53:27;;;;;;;0.70;0.70;;;;;;;;;;5011837;28;20046;-80
2024/04/01 10:56:24;;;;;;;1.50;1.20;;;;;;;;;;4988259;28;20053;-79
2024/04/01 10:59:15;;;;;;;2.50;2.20;;;;;;;;;;4930106;28;20133;-81
2024/04/01 11:02:14;;;;;;;5.18;1.20;;;;;;;;;;4979898;28;20121;-79
2024/04/01 11:05:19;;;;;;;2.13;1.95;;;;;;;;;;4981460;28;20668;-79
2024/04/01 11:08:09;;;;;;;1.38;1.27;;;;;;;;;;4961005;28;20519;-80
2024/04/01 11:10:54;;;;;;;29.60;3.83;;;;;;;;;;4968921;28;20915;-80
2024/04/01 11:13:39;;;;;;;2.72;2.50;;;;;;;;;;4963634;28;20506;-79
2024/04/01 11:16:37;;;;;;;3.53;2.38;;;;;;;;;;4962236;28;20062;-80
2024/04/01 11:19:20;;;;;;;0.70;0.65;;;;;;;;;;4970704;28;20053;-79
2024/04/01 11:22:11;;;;;;;3.70;1.75;;;;;;;;;;4954963;28;20399;-79
2024/04/01 11:25:13;;;;;;;1.90;1.42;;;;;;;;;;4935330;28;20042;-79
2024/04/01 11:28:30;;;;;;;1.48;1.17;;;;;;;;;;4986096;28;20064;-79
2024/04/01 11:31:23;;;;;;;3.25;2.88;;;;;;;;;;4976537;28;20052;-79
2024/04/01 11:34:20;;;;;;;0.57;0.57;;;;;;;;;;4981949;28;20077;-80
2024/04/01 11:37:08;;;;;;;25.02;4.35;;;;;;;;;;4972480;28;20037;-80
2024/04/01 11:40:13;;;;;;;2.00;1.90;;;;;;;;;;4978175;28;20057;-79
2024/04/01 11:42:39;;;;;;;1.60;1.30;;;;;;;;;;4975674;28;20057;-79
2024/04/01 11:45:11;;;;;;;1.77;1.67;;;;;;;;;;4967580;28;20034;-80
2024/04/01 11:47:46;;;;;;;0.88;0.50;;;;;;;;;;4975853;28;20196;-79
2024/04/01 11:50:31;;;;;;;2.53;2.33;;;;;;;;;;4965946;28;20072;-80
2024/04/01 11:53:10;;;;;;;0.47;0.45;;;;;;;;;;4957886;28;20089;-80
2024/04/01 11:55:54;;;;;;;2.08;1.67;;;;;;;;;;4964996;28;20039;-81
2024/04/01 11:58:49;;;;;;;9.65;2.13;;;;;;;;;;4968544;28;20124;-81
2024/04/01 12:01:31;;;;;;;2.50;1.17;;;;;;;;;;4980013;28;20667;-80
2024/04/01 12:04:12;;;;;;;0.47;0.47;;;;;;;;;;4976692;28;20050;-79
2024/04/01 12:06:40;;;;;;;2.15;1.95;;;;;;;;;;4964339;28;20050;-79
2024/04/01 12:09:09;;;;;;;3.40;3.10;;;;;;;;;;4990587;28;20074;-79
2024/04/01 12:11:42;;;;;;;3.60;1.67;;;;;;;;;;4980420;28;20053;-80
2024/04/01 12:14:07;;;;;;;1.77;1.58;;;;;;;;;;4984533;28;20092;-80
2024/04/01 12:16:51;;;;;;;3.53;2.22;;;;;;;;;;5005837;28;20066;-80
2024/04/01 12:19:30;;;;;;;0.30;0.30;;;;;;;;;;5006398;28;20042;-79
2024/04/01 12:22:06;;;;;;;2.38;1.55;;;;;;;;;;4965140;28;20057;-80
2024/04/01 12:24:53;;;;;;;2.03;1.90;;;;;;;;;;5012695;28;20068;-80
2024/04/01 12:27:21;;;;;;;3.92;2.47;;;;;;;;;;4976838;28;20042;-80
2024/04/01 12:29:50;;;;;;;0.90;0.88;;;;;;;;;;4996575;28;20080;-80
2024/04/01 12:32:28;;;;;;;3.80;3.08;;;;;;;;;;5021541;28;20161;-81
2024/04/01 12:34:56;;;;;;;2.15;1.40;;;;;;;;;;4988978;28;20740;-79
2024/04/01 12:37:33;;;;;;;2.13;2.03;;;;;;;;;;4996258;28;20038;-80
2024/04/01 12:40:10;;;;;;;1.00;0.77;;;;;;;;;;4958241;28;20141;-81
2024/04/01 12:43:24;;;;;;;2.05;1.55;;;;;;;;;;5003422;28;20041;-80
2024/04/01 12:46:05;;;;;;;4.00;2.90;;;;;;;;;;5000567;28;20045;-80
2024/04/01 12:48:37;;;;;;;4.20;2.72;;;;;;;;;;5006338;28;20041;-80
2024/04/01 12:51:05;;;;;;;1.40;1.30;;;;;;;;;;4988156;28;20121;-79
2024/04/01 12:53:51;;;;;;;23.08;1.65;;;;;;;;;;5009690;28;20029;-80
2024/04/01 12:56:44;;;;;;;0.70;0.70;;;;;;;;;;5028782;28;20050;-79
2024/04/01 12:59:18;;;;;;;;;;;;;;;;;;5002293;28;20080;-79
2024/04/01 13:02:04;;;;;;;2.28;2.03;;;;;;;;;;5023779;28;20443;-79
2024/04/01 13:04:57;;;;;;;6.13;3.72;;;;;;;;;;5035680;28;20048;-79
2024/04/01 13:07:44;;;;;;;2.83;2.30;;;;;;;;;;5021576;28;20041;-81
2024/04/01 13:10:59;;;;;;;2.90;2.53;;;;;;;;;;5022426;28;20068;-79
2024/04/01 13:14:08;;;;;;;1.95;1.75;;;;;;;;;;4916984;28;20058;-79
2024/04/01 13:16:33;;;;;;;2.45;1.55;;;;;;;;;;4945844;28;20043;-79
2024/04/01 13:19:46;;;;;;;4.28;2.58;;;;;;;;;;4948255;28;20160;-80
2024/04/01 13:22:47;;;;;;;2.53;1.75;;;;;;;;;;4904243;29;20051;-79
2024/04/01 13:26:02;;;;;;;1.58;1.27;;;;;;;;;;4902673;29;20040;-80
2024/04/01 13:28:46;;;;;;;2.03;1.73;;;;;;;;;;4913986;29;20048;-79
2024/04/01 13:31:36;;;;;;;2.97;1.65;;;;;;;;;;4900916;29;20079;-79
2024/04/01 13:34:25;;;;;;;5.00;2.17;;;;;;;;;;4954201;28;20440;-79
2024/04/01 13:37:15;;;;;;;3.80;3.28;;;;;;;;;;4941622;28;20036;-78
2024/04/01 13:40:00;;;;;;;7.18;4.03;;;;;;;;;;4946783;28;20158;-77
2024/04/01 13:42:50;;;;;;;11.93;2.55;;;;;;;;;;4938231;28;20054;-79
2024/04/01 13:45:40;;;;;;;0.20;0.20;;;;;;;;;;4943725;28;20537;-78
2024/04/01 13:48:25;;;;;;;1.25;1.15;;;;;;;;;;4967214;28;20139;-80
2024/04/01 13:51:23;;;;;;;19.10;5.18;;;;;;;;;;5043471;28;20022;-79
2024/04/01 13:53:54;;;;;;;6.40;2.85;;;;;;;;;;5008679;28;20025;-78
2024/04/01 13:56:42;;;;;;;2.63;2.20;;;;;;;;;;5022533;28;20025;-78
2024/04/01 13:59:32;;;;;;;2.85;1.75;;;;;;;;;;5037166;28;20073;-79
2024/04/01 14:02:28;;;;;;;2.65;2.20;;;;;;;;;;5045597;28;20486;-79
2024/04/01 14:05:41;;;;;;;2.13;2.00;;;;;;;;;;5043763;28;20040;-79
2024/04/01 14:08:33;;;;;;;3.90;3.60;;;;;;;;;;5040986;28;20060;-78
2024/04/01 14:11:18;;;;;;;0.60;0.57;;;;;;;;;;5051826;28;20036;-79
2024/04/01 14:14:43;;;;;;;2.38;1.23;;;;;;;;;;5041802;28;20045;-79
2024/04/01 14:17:26;;;;;;;4.70;2.13;;;;;;;;;;4945675;29;20061;-80
2024/04/01 14:20:18;;;;;;;0.75;0.73;;;;;;;;;;4945619;28;20043;-81
2024/04/01 14:22:50;;;;;;;4.07;2.60;;;;;;;;;;4944974;28;20049;-79
2024/04/01 14:25:55;;;;;;;2.92;2.40;;;;;;;;;;4945518;28;20125;-79
2024/04/01 14:28:49;;;;;;;2.05;1.42;;;;;;;;;;4926662;29;20043;-81
2024/04/01 14:31:35;;;;;;;2.22;1.50;;;;;;;;;;4927256;29;20054;-79
2024/04/01 14:34:23;;;;;;;7.50;5.50;;;;;;;;;;4945911;28;20083;-79
2024/04/01 14:37:10;;;;;;;3.33;3.03;;;;;;;;;;4944152;28;20062;-79
2024/04/01 14:39:52;;;;;;;1.85;1.67;;;;;;;;;;5011586;28;20677;-80
2024/04/01 14:42:21;;;;;;;8.65;3.05;;;;;;;;;;5011264;28;20441;-78
2024/04/01 14:44:50;;;;;;;3.45;2.97;;;;;;;;;;5014830;28;20052;-81
2024/04/01 14:47:27;;;;;;;1.15;1.05;;;;;;;;;;5021021;28;20053;-78
2024/04/01 14:50:07;;;;;;;14.68;4.50;;;;;;;;;;4978501;28;20451;-80
2024/04/01 14:52:35;;;;;;;7.47;2.05;;;;;;;;;;5033581;28;20057;-80
2024/04/01 14:55:13;;;;;;;0.30;0.30;;;;;;;;;;5005363;28;20044;-80
2024/04/01 14:57:44;;;;;;;2.55;1.55;;;;;;;;;;5026556;28;20517;-79
2024/04/01 15:00:11;;;;;;;8.70;2.03;;;;;;;;;;4997457;28;20049;-78
2024/04/01 15:02:44;;;;;;;3.97;2.50;;;;;;;;;;5030459;28;20071;-78
2024/04/01 15:05:29;;;;;;;22.63;4.68;;;;;;;;;;5019595;28;20033;-78
2024/04/01 15:08:06;;;;;;;19.00;4.82;;;;;;;;;;5020771;28;20046;-79
2024/04/01 15:10:54;;;;;;;4.13;3.63;;;;;;;;;;4998924;28;20334;-78
2024/04/01 15:13:41;;;;;;;14.20;3.20;;;;;;;;;;5000951;28;20855;-79
2024/04/01 15:16:16;;;;;;;5.13;3.60;;;;;;;;;;4990019;28;20046;-79
2024/04/01 15:19:01;;;;;;;6.13;2.92;;;;;;;;;;5002780;28;20516;-80
2024/04/01 15:21:38;;;;;;;4.97;2.92;;;;;;;;;;4991735;28;20042;-79
2024/04/01 15:24:07;;;;;;;4.45;2.97;;;;;;;;;;5002712;28;20144;-80